Time;durP1;ratioP1;P1;durP2;ratioP2;P2;SDS_P1;SDS_P2;PMS_P1;PMS_P2;Temp;Humidity;BMP_temperature;BMP_pressure;BME280_temperature;BME280_humidity;BME280_pressure;Samples;Min_cycle;Max_cycle;Signal;HPM_P1;HPM_P2
2022/09/23 00:01:15;;;;;;;5.80;3.50;;;8.60;73.90;;;;;;5072475;28;20021;-79
2022/09/23 00:03:45;;;;;;;6.05;3.15;;;8.60;73.90;;;;;;5054456;28;20036;-77
2022/09/23 00:06:18;;;;;;;5.43;3.20;;;8.60;74.00;;;;;;5072290;28;20051;-81
2022/09/23 00:08:44;;;;;;;6.80;3.75;;;8.50;74.50;;;;;;5072418;28;20035;-81
2022/09/23 00:11:13;;;;;;;5.50;3.15;;;8.40;74.70;;;;;;5072452;28;20021;-74
2022/09/23 00:13:41;;;;;;;4.47;3.08;;;8.40;74.80;;;;;;5075169;28;20021;-75
2022/09/23 00:16:10;;;;;;;3.67;2.95;;;8.40;74.80;;;;;;5058352;28;20036;-75
2022/09/23 00:18:36;;;;;;;4.30;3.42;;;8.30;75.20;;;;;;5076394;28;20412;-76
2022/09/23 00:21:04;;;;;;;4.82;3.17;;;8.30;75.20;;;;;;5076144;28;20020;-76
2022/09/23 00:23:30;;;;;;;4.88;3.40;;;8.20;75.20;;;;;;5076028;28;20102;-76
2022/09/23 00:26:00;;;;;;;4.35;3.28;;;8.20;75.40;;;;;;5076154;28;20341;-76
2022/09/23 00:28:26;;;;;;;4.90;3.10;;;8.10;75.70;;;;;;5058848;28;20426;-77
2022/09/23 00:30:51;;;;;;;6.20;3.55;;;8.10;76.00;;;;;;5075746;28;20058;-79
2022/09/23 00:33:17;;;;;;;5.95;3.65;;;8.00;76.00;;;;;;5079401;28;20103;-75
2022/09/23 00:35:42;;;;;;;5.13;3.40;;;8.00;76.10;;;;;;5094841;28;20023;-75
2022/09/23 00:38:08;;;;;;;5.32;3.40;;;8.00;76.20;;;;;;5082211;28;20125;-75
2022/09/23 00:40:35;;;;;;;6.07;3.47;;;8.00;76.00;;;;;;5078231;28;20023;-79
2022/09/23 00:43:00;;;;;;;6.97;2.92;;;8.00;76.30;;;;;;5075915;28;20059;-76
2022/09/23 00:45:27;;;;;;;4.55;3.40;;;7.90;76.70;;;;;;5075568;28;20500;-76
2022/09/23 00:47:56;;;;;;;6.05;3.72;;;7.90;76.70;;;;;;5076000;28;20052;-77
2022/09/23 00:50:38;;;;;;;5.80;3.90;;;7.90;76.70;;;;;;5075760;28;20021;-75
2022/09/23 00:53:14;;;;;;;5.55;4.13;;;7.80;76.70;;;;;;5075888;28;20035;-79
2022/09/23 00:55:47;;;;;;;4.28;3.22;;;7.90;76.70;;;;;;5075744;28;20017;-76
2022/09/23 00:58:17;;;;;;;7.65;3.53;;;7.80;76.50;;;;;;5078535;28;20469;-75
2022/09/23 01:00:44;;;;;;;5.30;3.83;;;7.80;76.90;;;;;;5075616;28;20075;-82
2022/09/23 01:03:10;;;;;;;5.45;3.38;;;7.70;77.30;;;;;;5075278;28;20036;-75
2022/09/23 01:05:37;;;;;;;5.70;3.67;;;7.70;77.30;;;;;;5075516;28;20013;-80
2022/09/23 01:08:03;;;;;;;6.57;4.10;;;7.60;77.50;;;;;;5075471;28;20024;-82
2022/09/23 01:10:51;;;;;;;7.07;4.22;;;7.50;77.80;;;;;;5075111;28;20046;-75
2022/09/23 01:14:00;;;;;;;5.43;3.97;;;7.50;78.00;;;;;;5075108;28;20024;-76
2022/09/23 01:16:52;;;;;;;7.15;3.60;;;7.40;78.60;;;;;;5028134;28;20040;-86
2022/09/23 01:19:35;;;;;;;4.65;3.35;;;7.40;78.70;;;;;;5075037;28;20070;-84
2022/09/23 01:22:22;;;;;;;10.23;3.78;;;7.50;78.70;;;;;;5075227;28;20070;-84
2022/09/23 01:24:56;;;;;;;5.47;3.45;;;7.50;78.30;;;;;;5074237;28;20434;-76
2022/09/23 01:27:35;;;;;;;3.80;2.27;;;7.60;78.10;;;;;;5074539;28;20357;-75
2022/09/23 01:30:34;;;;;;;5.45;3.63;;;7.60;77.70;;;;;;5074710;28;20350;-76
2022/09/23 01:33:26;;;;;;;6.93;3.67;;;7.60;77.50;;;;;;5075255;28;20090;-76
2022/09/23 01:36:12;;;;;;;4.57;3.17;;;7.50;77.80;;;;;;5056995;28;20072;-77
2022/09/23 01:38:51;;;;;;;7.25;4.00;;;7.50;78.20;;;;;;5075066;28;20028;-76
2022/09/23 01:41:23;;;;;;;4.80;3.17;;;7.50;78.30;;;;;;5075291;28;20024;-77
2022/09/23 01:43:56;;;;;;;9.02;3.88;;;7.50;78.10;;;;;;5074302;28;20614;-76
2022/09/23 01:46:29;;;;;;;5.32;3.28;;;7.50;78.00;;;;;;5074404;28;20029;-77
2022/09/23 01:49:17;;;;;;;6.13;3.60;;;7.60;77.80;;;;;;5074386;28;20487;-76
2022/09/23 01:52:14;;;;;;;5.38;3.85;;;7.60;77.60;;;;;;5057083;28;20020;-77
2022/09/23 01:55:09;;;;;;;3.95;3.05;;;7.60;77.60;;;;;;5074699;28;20020;-77
2022/09/23 01:57:43;;;;;;;5.55;3.90;;;7.50;77.80;;;;;;5065100;28;20032;-76
2022/09/23 02:00:13;;;;;;;5.72;3.67;;;7.50;77.80;;;;;;5074918;28;20361;-77
2022/09/23 02:02:48;;;;;;;5.45;3.67;;;7.50;77.90;;;;;;5074471;28;20025;-77
2022/09/23 02:05:46;;;;;;;7.97;4.10;;;7.40;77.80;;;;;;5075535;28;20025;-77
2022/09/23 02:08:28;;;;;;;4.57;3.63;;;7.30;78.40;;;;;;5061745;28;20020;-76
2022/09/23 02:11:04;;;;;;;5.85;3.63;;;7.30;78.50;;;;;;5075183;28;20016;-76
2022/09/23 02:13:54;;;;;;;6.45;3.97;;;7.30;78.50;;;;;;5074578;28;20020;-79
2022/09/23 02:16:50;;;;;;;4.30;3.40;;;7.30;78.70;;;;;;5075633;28;20023;-76
2022/09/23 02:19:40;;;;;;;5.00;3.70;;;7.30;78.80;;;;;;5056974;28;20029;-77
2022/09/23 02:22:18;;;;;;;7.90;4.40;;;7.30;78.60;;;;;;5073834;28;20376;-76
2022/09/23 02:24:44;;;;;;;5.22;3.78;;;7.30;78.60;;;;;;5073187;28;20024;-76
2022/09/23 02:27:29;;;;;;;6.25;3.97;;;7.30;78.70;;;;;;5073862;28;20108;-76
2022/09/23 02:30:20;;;;;;;3.13;2.83;;;7.30;78.60;;;;;;5073471;28;20028;-76
2022/09/23 02:32:54;;;;;;;6.80;4.68;;;7.20;78.80;;;;;;5073162;28;20028;-76
2022/09/23 02:35:58;;;;;;;8.20;4.13;;;7.20;79.20;;;;;;5072994;28;20025;-82
2022/09/23 02:38:37;;;;;;;4.78;3.42;;;7.10;79.20;;;;;;5055407;28;20029;-76
2022/09/23 02:41:12;;;;;;;4.63;3.65;;;7.10;79.20;;;;;;5073113;28;20020;-76
2022/09/23 02:43:56;;;;;;;4.63;3.53;;;7.00;79.50;;;;;;5072955;28;20081;-82
2022/09/23 02:46:22;;;;;;;4.60;3.13;;;7.00;79.60;;;;;;5073317;28;20028;-76
2022/09/23 02:48:55;;;;;;;5.90;3.55;;;6.90;80.20;;;;;;5073091;28;20020;-77
2022/09/23 02:51:24;;;;;;;4.72;3.00;;;7.00;80.10;;;;;;5073262;28;20533;-76
2022/09/23 02:53:52;;;;;;;4.90;3.72;;;7.00;80.00;;;;;;5073035;28;20025;-77
2022/09/23 02:56:19;;;;;;;4.70;3.20;;;7.00;79.90;;;;;;5073161;28;20044;-75
2022/09/23 02:58:47;;;;;;;4.95;3.28;;;7.10;79.80;;;;;;5073040;28;20035;-77
2022/09/23 03:01:31;;;;;;;5.72;2.83;;;7.10;79.60;;;;;;5054858;28;20028;-76
2022/09/23 03:04:14;;;;;;;3.83;3.05;;;7.00;79.50;;;;;;5072980;28;20056;-77
2022/09/23 03:06:45;;;;;;;4.85;3.10;;;7.00;79.60;;;;;;5073029;28;20025;-77
2022/09/23 03:09:18;;;;;;;5.85;3.55;;;7.10;79.50;;;;;;5072696;28;20493;-77
2022/09/23 03:11:51;;;;;;;5.45;3.30;;;7.00;79.50;;;;;;5072977;28;20473;-77
2022/09/23 03:14:37;;;;;;;4.63;3.38;;;7.00;79.50;;;;;;5073148;28;20020;-78
2022/09/23 03:17:09;;;;;;;4.57;3.08;;;7.00;79.50;;;;;;5054968;28;20025;-78
2022/09/23 03:19:47;;;;;;;7.07;3.75;;;7.00;79.40;;;;;;5072710;28;20017;-76
2022/09/23 03:22:35;;;;;;;7.93;3.35;;;7.00;79.40;;;;;;5072757;28;20035;-76
2022/09/23 03:25:14;;;;;;;3.90;3.00;;;7.00;79.50;;;;;;5072831;28;20024;-77
2022/09/23 03:27:42;;;;;;;3.92;3.00;;;7.00;79.70;;;;;;5072708;28;20023;-77
2022/09/23 03:30:09;;;;;;;4.88;3.00;;;6.90;80.00;;;;;;5072691;28;20377;-77
2022/09/23 03:32:37;;;;;;;4.20;2.97;;;6.90;80.00;;;;;;5072626;28;20044;-77
2022/09/23 03:35:05;;;;;;;6.50;3.35;;;6.90;80.10;;;;;;5072681;28;20013;-77
2022/09/23 03:37:46;;;;;;;4.15;3.13;;;6.80;80.10;;;;;;5072613;28;20122;-77
2022/09/23 03:40:18;;;;;;;4.47;3.10;;;6.80;80.20;;;;;;5072217;28;20152;-77
2022/09/23 03:42:45;;;;;;;7.88;3.35;;;6.80;80.10;;;;;;5072431;28;20100;-77
2022/09/23 03:45:17;;;;;;;4.55;3.08;;;6.80;80.00;;;;;;5072478;28;20590;-76
2022/09/23 03:47:43;;;;;;;5.82;3.50;;;6.80;80.10;;;;;;5074113;28;20059;-79
2022/09/23 03:50:12;;;;;;;6.95;3.22;;;6.80;80.20;;;;;;5076693;28;20545;-76
2022/09/23 03:52:38;;;;;;;6.07;3.90;;;6.80;80.10;;;;;;5079024;28;20021;-75
2022/09/23 03:55:05;;;;;;;6.05;3.30;;;6.80;80.00;;;;;;5077874;28;20029;-76
2022/09/23 03:57:30;;;;;;;4.45;3.50;;;6.80;80.00;;;;;;5076848;28;20370;-76
2022/09/23 03:59:56;;;;;;;6.30;3.47;;;6.80;80.20;;;;;;5076973;28;20031;-76
2022/09/23 04:02:22;;;;;;;5.68;3.45;;;6.70;80.30;;;;;;5077446;28;20067;-76
2022/09/23 04:04:47;;;;;;;4.68;3.42;;;6.70;80.30;;;;;;5059771;28;20032;-81
2022/09/23 04:07:14;;;;;;;4.78;3.17;;;6.80;80.00;;;;;;5076539;28;20024;-77
2022/09/23 04:09:39;;;;;;;3.92;3.00;;;6.80;80.80;;;;;;5077970;28;20485;-77
2022/09/23 04:12:05;;;;;;;3.70;3.00;;;6.80;80.20;;;;;;5080142;28;20063;-87
2022/09/23 04:14:31;;;;;;;5.43;3.33;;;6.80;80.20;;;;;;5082996;28;20115;-76
2022/09/23 04:16:57;;;;;;;4.63;3.13;;;6.80;80.20;;;;;;5092228;28;20043;-75
2022/09/23 04:19:23;;;;;;;5.70;3.17;;;6.70;80.20;;;;;;5082883;28;20090;-79
2022/09/23 04:21:49;;;;;;;6.13;3.20;;;6.80;80.30;;;;;;5076652;28;20027;-84
2022/09/23 04:24:15;;;;;;;5.40;3.83;;;6.70;80.60;;;;;;5076325;28;20040;-77
2022/09/23 04:26:42;;;;;;;5.88;3.55;;;6.70;80.90;;;;;;5076030;28;20093;-80
2022/09/23 04:29:09;;;;;;;5.90;3.03;;;6.70;80.70;;;;;;5076021;28;20467;-76
2022/09/23 04:31:34;;;;;;;6.10;3.10;;;6.70;80.60;;;;;;5075723;28;20099;-77
2022/09/23 04:34:00;;;;;;;4.43;3.50;;;6.70;80.60;;;;;;5075739;28;20048;-76
2022/09/23 04:36:26;;;;;;;7.60;3.70;;;6.70;80.60;;;;;;5058203;28;20024;-82
2022/09/23 04:38:51;;;;;;;5.13;3.20;;;6.70;81.30;;;;;;5075726;28;20484;-77
2022/09/23 04:41:18;;;;;;;6.53;3.58;;;6.70;81.30;;;;;;5076021;28;20108;-75
2022/09/23 04:43:44;;;;;;;7.05;3.60;;;6.60;80.60;;;;;;5077444;28;20064;-78
2022/09/23 04:46:12;;;;;;;6.07;3.55;;;6.70;80.50;;;;;;5076550;28;20025;-84
2022/09/23 04:48:40;;;;;;;6.28;4.10;;;6.70;81.30;;;;;;5076231;28;20032;-77
2022/09/23 04:51:10;;;;;;;7.40;3.92;;;6.70;80.50;;;;;;5077642;28;20016;-77
2022/09/23 04:53:36;;;;;;;6.68;3.55;;;6.70;80.50;;;;;;5081694;28;20358;-78
2022/09/23 04:56:08;;;;;;;5.72;3.70;;;6.70;80.40;;;;;;5061529;28;20033;-82
2022/09/23 04:58:34;;;;;;;7.75;3.60;;;6.60;80.30;;;;;;5074666;28;20020;-82
2022/09/23 05:01:19;;;;;;;5.55;3.88;;;6.60;80.50;;;;;;5075669;28;20437;-79
2022/09/23 05:03:45;;;;;;;6.22;4.18;;;6.60;80.60;;;;;;5075606;28;20094;-82
2022/09/23 05:06:13;;;;;;;6.25;3.78;;;6.60;80.40;;;;;;5075531;28;20024;-82
2022/09/23 05:08:40;;;;;;;5.60;3.60;;;6.60;80.50;;;;;;5075549;28;20035;-79
2022/09/23 05:11:06;;;;;;;5.07;3.42;;;6.60;80.60;;;;;;5075707;28;20024;-77
2022/09/23 05:13:32;;;;;;;5.78;4.22;;;6.60;80.80;;;;;;5080689;28;20020;-82
2022/09/23 05:16:16;;;;;;;10.85;4.07;;;6.60;80.60;;;;;;5083565;28;20027;-80
2022/09/23 05:18:43;;;;;;;6.40;4.03;;;6.70;80.60;;;;;;5086877;28;20009;-82
2022/09/23 05:21:10;;;;;;;6.35;3.47;;;6.70;80.40;;;;;;5090928;28;20032;-76
2022/09/23 05:23:36;;;;;;;5.25;3.78;;;6.80;80.20;;;;;;5084416;28;20037;-80
2022/09/23 05:26:05;;;;;;;9.80;3.78;;;6.80;80.30;;;;;;5081838;28;20029;-79
2022/09/23 05:28:32;;;;;;;5.57;3.72;;;6.80;80.10;;;;;;5080987;28;20101;-81
2022/09/23 05:31:07;;;;;;;7.60;4.00;;;6.80;79.90;;;;;;5075695;28;20016;-88
2022/09/23 05:33:35;;;;;;;6.15;4.10;;;6.80;79.70;;;;;;5075943;28;20032;-76
2022/09/23 05:36:02;;;;;;;7.28;4.45;;;6.90;79.60;;;;;;5074271;28;20025;-77
2022/09/23 05:38:28;;;;;;;7.32;4.38;;;6.80;79.40;;;;;;5056009;28;20506;-75
2022/09/23 05:40:58;;;;;;;8.07;3.75;;;6.80;79.50;;;;;;5074112;28;20031;-76
2022/09/23 05:43:24;;;;;;;7.28;3.70;;;6.70;79.90;;;;;;5074234;28;20511;-77
2022/09/23 05:45:51;;;;;;;5.75;3.88;;;6.70;80.10;;;;;;5073985;28;20094;-76
2022/09/23 05:48:17;;;;;;;9.38;4.03;;;6.80;80.00;;;;;;5055952;28;20033;-76
2022/09/23 05:50:50;;;;;;;5.03;3.88;;;6.80;79.80;;;;;;5073878;28;20488;-77
2022/09/23 05:53:16;;;;;;;6.50;3.90;;;6.90;79.70;;;;;;5073943;28;20052;-76
2022/09/23 05:55:42;;;;;;;7.18;4.15;;;6.90;79.30;;;;;;5073654;28;20020;-76
2022/09/23 05:58:07;;;;;;;5.95;3.50;;;7.00;79.00;;;;;;5073747;28;20017;-76
2022/09/23 06:00:33;;;;;;;6.20;3.78;;;7.10;78.90;;;;;;5073722;28;20381;-77
2022/09/23 06:02:58;;;;;;;5.43;3.25;;;7.20;78.40;;;;;;5073583;28;20461;-76
2022/09/23 06:05:24;;;;;;;6.10;3.55;;;7.20;77.90;;;;;;5074066;28;20024;-76
2022/09/23 06:07:49;;;;;;;9.02;4.15;;;7.30;77.90;;;;;;5074002;28;20031;-76
2022/09/23 06:10:15;;;;;;;10.40;3.90;;;7.40;77.70;;;;;;5073685;28;20025;-77
2022/09/23 06:12:43;;;;;;;6.32;3.38;;;7.40;77.80;;;;;;5073785;28;20509;-78
2022/09/23 06:15:10;;;;;;;6.47;3.47;;;7.50;78.00;;;;;;5073393;28;20017;-78
2022/09/23 06:17:36;;;;;;;5.82;3.90;;;7.50;77.80;;;;;;5073365;28;20027;-78
2022/09/23 06:20:02;;;;;;;7.95;4.18;;;7.90;84.90;;;;;;5072848;28;20028;-78
2022/09/23 06:22:28;;;;;;;9.30;3.78;;;8.40;81.50;;;;;;5072995;28;20082;-79
2022/09/23 06:24:53;;;;;;;8.80;4.00;;;8.80;79.30;;;;;;5073033;28;20447;-79
2022/09/23 06:27:19;;;;;;;13.70;4.22;;;9.10;76.30;;;;;;5073196;28;20024;-82
2022/09/23 06:29:44;;;;;;;8.82;4.22;;;9.40;73.50;;;;;;5072581;28;20051;-76
2022/09/23 06:32:10;;;;;;;9.27;3.85;;;9.60;73.40;;;;;;5072008;28;20025;-80
2022/09/23 06:34:35;;;;;;;5.22;3.42;;;9.90;73.10;;;;;;5054854;28;20552;-78
2022/09/23 06:37:01;;;;;;;6.70;3.47;;;10.10;71.30;;;;;;5072728;28;20032;-77
2022/09/23 06:39:26;;;;;;;4.78;2.97;;;10.30;70.30;;;;;;5054606;28;20017;-76
2022/09/23 06:41:52;;;;;;;3.90;2.70;;;10.40;69.10;;;;;;5072968;28;20382;-81
2022/09/23 06:44:18;;;;;;;5.32;2.97;;;10.60;68.10;;;;;;5072536;28;20076;-78
2022/09/23 06:46:43;;;;;;;6.53;3.08;;;10.60;67.40;;;;;;5054709;28;20135;-79
2022/09/23 06:49:12;;;;;;;8.73;3.72;;;10.60;67.30;;;;;;5073043;28;20033;-89
2022/09/23 06:51:39;;;;;;;8.48;3.47;;;10.50;67.40;;;;;;5055565;28;20024;-78
2022/09/23 06:54:04;;;;;;;9.93;4.35;;;10.50;67.50;;;;;;5073003;28;20020;-78
2022/09/23 06:56:30;;;;;;;7.45;4.00;;;10.40;67.90;;;;;;5074533;28;20020;-79
2022/09/23 06:58:55;;;;;;;7.00;3.53;;;10.40;68.40;;;;;;5075039;28;20020;-78
2022/09/23 07:01:22;;;;;;;7.47;3.63;;;10.40;68.80;;;;;;5079225;28;20024;-76
2022/09/23 07:03:47;;;;;;;6.43;3.58;;;10.40;69.20;;;;;;5075592;28;20538;-79
2022/09/23 07:06:14;;;;;;;8.30;3.92;;;10.50;69.40;;;;;;5073699;28;20025;-80
2022/09/23 07:08:43;;;;;;;10.30;3.88;;;10.60;69.50;;;;;;5054846;28;20429;-78
2022/09/23 07:11:11;;;;;;;9.55;3.60;;;10.70;69.30;;;;;;5072945;28;20111;-79
2022/09/23 07:13:36;;;;;;;6.93;3.45;;;10.90;69.10;;;;;;5072801;28;20017;-79
2022/09/23 07:16:02;;;;;;;6.80;3.30;;;11.10;68.80;;;;;;5072767;28;20028;-78
2022/09/23 07:18:32;;;;;;;10.55;3.70;;;11.30;68.40;;;;;;5072988;28;20409;-79
2022/09/23 07:21:14;;;;;;;10.27;3.97;;;11.40;68.10;;;;;;5073042;28;20020;-81
2022/09/23 07:23:44;;;;;;;5.22;3.67;;;11.50;68.00;;;;;;5076036;28;20035;-78
2022/09/23 07:26:11;;;;;;;8.07;2.97;;;11.80;67.80;;;;;;5076679;28;20063;-78
2022/09/23 07:28:37;;;;;;;7.55;3.65;;;12.00;67.60;;;;;;5058692;28;20101;-79
2022/09/23 07:31:08;;;;;;;7.15;2.90;;;12.20;67.50;;;;;;5076675;28;20025;-77
2022/09/23 07:33:36;;;;;;;5.90;3.25;;;12.40;67.10;;;;;;5076378;28;20028;-78
2022/09/23 07:36:11;;;;;;;5.90;3.33;;;12.60;66.60;;;;;;5076597;28;20024;-78
2022/09/23 07:38:37;;;;;;;6.15;2.90;;;12.80;66.10;;;;;;5076514;28;20027;-78
2022/09/23 07:41:05;;;;;;;9.38;2.80;;;13.00;65.70;;;;;;5076489;28;20095;-79
2022/09/23 07:43:31;;;;;;;6.13;3.30;;;13.20;65.50;;;;;;5076155;28;20033;-79
2022/09/23 07:45:59;;;;;;;5.78;2.80;;;13.40;65.10;;;;;;5076285;28;20051;-79
2022/09/23 07:48:25;;;;;;;4.15;3.10;;;13.60;64.80;;;;;;5076302;28;20056;-79
2022/09/23 07:50:50;;;;;;;9.75;3.55;;;13.70;64.80;;;;;;5076395;28;20108;-78
2022/09/23 07:53:16;;;;;;;6.50;3.35;;;13.80;64.00;;;;;;5058378;28;20062;-78
2022/09/23 07:55:42;;;;;;;5.22;3.25;;;13.90;63.80;;;;;;5076065;28;20468;-84
2022/09/23 07:58:07;;;;;;;4.22;2.92;;;14.00;63.60;;;;;;5076063;28;20025;-80
2022/09/23 08:00:33;;;;;;;17.58;8.38;;;14.10;63.50;;;;;;5076115;28;20594;-79
2022/09/23 08:02:59;;;;;;;17.33;9.88;;;14.20;63.50;;;;;;5075453;28;20029;-78
2022/09/23 08:05:25;;;;;;;14.35;7.53;;;14.20;63.10;;;;;;5075609;28;20024;-80
2022/09/23 08:07:51;;;;;;;11.32;6.53;;;14.20;63.00;;;;;;5075795;28;20109;-78
2022/09/23 08:10:17;;;;;;;10.57;5.63;;;14.20;63.10;;;;;;5075203;28;20024;-79
2022/09/23 08:12:44;;;;;;;10.13;6.15;;;14.30;63.40;;;;;;5075641;28;20024;-80
2022/09/23 08:15:09;;;;;;;10.20;5.15;;;14.30;64.20;;;;;;5075391;28;20354;-79
2022/09/23 08:17:35;;;;;;;9.57;4.63;;;14.30;64.40;;;;;;5075582;28;20031;-79
2022/09/23 08:20:01;;;;;;;9.07;4.63;;;14.30;64.90;;;;;;5075640;28;20029;-79
2022/09/23 08:22:26;;;;;;;10.18;4.00;;;14.40;65.00;;;;;;5057691;28;20040;-78
2022/09/23 08:24:52;;;;;;;10.38;4.40;;;14.40;64.90;;;;;;5075785;28;20035;-78
2022/09/23 08:27:17;;;;;;;5.93;4.03;;;14.50;65.20;;;;;;5075177;28;20024;-78
2022/09/23 08:29:43;;;;;;;6.90;3.95;;;14.50;65.30;;;;;;5075491;28;20074;-78
2022/09/23 08:32:08;;;;;;;6.63;3.70;;;14.60;65.10;;;;;;5075639;28;20029;-78
2022/09/23 08:34:34;;;;;;;6.47;4.18;;;14.70;65.10;;;;;;5075170;28;20032;-79
2022/09/23 08:37:00;;;;;;;7.30;3.60;;;14.70;64.60;;;;;;5057552;28;20016;-79
2022/09/23 08:39:25;;;;;;;11.50;3.95;;;14.80;64.00;;;;;;5057264;28;20481;-78
2022/09/23 08:42:10;;;;;;;10.10;4.18;;;14.80;64.30;;;;;;5075391;28;20031;-78
2022/09/23 08:44:55;;;;;;;6.70;4.20;;;14.90;64.50;;;;;;5075059;28;20041;-79
2022/09/23 08:47:26;;;;;;;7.90;3.77;;;14.90;64.70;;;;;;5075345;28;20016;-79
2022/09/23 08:50:05;;;;;;;8.20;4.35;;;15.00;64.10;;;;;;5075338;28;20103;-79
2022/09/23 08:52:38;;;;;;;11.75;3.85;;;15.10;63.90;;;;;;5075112;28;20013;-78
2022/09/23 08:55:04;;;;;;;9.45;4.20;;;15.00;64.70;;;;;;5075108;28;20020;-79
2022/09/23 08:57:42;;;;;;;5.38;3.88;;;15.00;64.30;;;;;;5074818;28;20027;-78
2022/09/23 09:00:17;;;;;;;6.03;2.92;;;15.20;64.60;;;;;;5075114;28;20027;-84
2022/09/23 09:02:43;;;;;;;8.18;4.10;;;15.50;64.50;;;;;;5076950;28;20029;-84
2022/09/23 09:05:11;;;;;;;7.53;3.80;;;15.50;62.80;;;;;;5076922;28;20024;-79
2022/09/23 09:07:39;;;;;;;8.98;3.55;;;15.60;62.40;;;;;;5075661;28;20020;-79
2022/09/23 09:10:09;;;;;;;11.23;3.97;;;16.00;62.00;;;;;;5076114;28;20024;-78
2022/09/23 09:13:15;;;;;;;12.38;3.78;;;16.20;59.90;;;;;;5074373;28;20028;-80
2022/09/23 09:15:47;;;;;;;5.38;3.85;;;16.50;59.30;;;;;;5037113;28;20030;-79
2022/09/23 09:18:18;;;;;;;10.52;4.05;;;16.70;57.90;;;;;;5074515;28;20024;-80
2022/09/23 09:20:54;;;;;;;9.95;4.35;;;16.90;57.00;;;;;;5074558;28;20027;-78
2022/09/23 09:23:42;;;;;;;7.25;3.53;;;17.10;57.30;;;;;;5074170;28;20024;-79
2022/09/23 09:26:15;;;;;;;4.70;3.50;;;17.30;56.30;;;;;;5023252;28;20033;-78
2022/09/23 09:28:59;;;;;;;3.63;2.55;;;17.50;55.20;;;;;;5056050;28;20477;-80
2022/09/23 09:31:48;;;;;;;8.15;4.60;;;17.80;55.30;;;;;;5073719;28;20020;-78
2022/09/23 09:34:24;;;;;;;6.93;3.67;;;18.10;54.80;;;;;;5073664;28;20024;-78
2022/09/23 09:37:07;;;;;;;5.95;3.70;;;18.30;53.70;;;;;;5073645;28;20024;-78
2022/09/23 09:39:34;;;;;;;6.13;3.35;;;18.50;50.80;;;;;;5073962;28;20464;-79
2022/09/23 09:42:01;;;;;;;6.75;2.95;;;18.60;50.50;;;;;;5073871;28;20021;-76
2022/09/23 09:44:45;;;;;;;3.30;2.40;;;18.70;50.70;;;;;;5073389;28;20381;-77
2022/09/23 09:47:45;;;;;;;5.78;2.95;;;18.80;50.00;;;;;;5073846;28;20096;-77
2022/09/23 09:50:20;;;;;;;8.55;5.00;;;19.00;48.40;;;;;;5074201;28;20108;-77
2022/09/23 09:52:55;;;;;;;;;;;19.10;47.20;;;;;;5074355;28;20032;-82
2022/09/23 09:55:28;;;;;;;2.13;1.63;;;19.00;45.30;;;;;;5073999;28;19904;-80
2022/09/23 09:57:54;;;;;;;4.20;1.80;;;18.90;42.90;;;;;;5073598;28;20021;-78
2022/09/23 10:00:25;;;;;;;4.60;1.90;;;18.60;41.10;;;;;;5073626;28;20052;-79
2022/09/23 10:02:54;;;;;;;5.55;1.70;;;18.50;39.00;;;;;;5073552;28;20025;-80
2022/09/23 10:05:48;;;;;;;4.55;1.63;;;18.30;39.50;;;;;;5055043;28;20025;-78
2022/09/23 10:08:24;;;;;;;5.22;2.28;;;18.30;39.30;;;;;;5069756;28;20033;-77
2022/09/23 10:11:03;;;;;;;3.78;2.00;;;18.30;39.80;;;;;;5073167;28;20025;-77
2022/09/23 10:13:29;;;;;;;5.72;2.20;;;18.30;41.60;;;;;;5072901;28;20027;-78
2022/09/23 10:15:57;;;;;;;3.00;1.92;;;18.20;41.70;;;;;;5072806;28;20024;-78
2022/09/23 10:18:36;;;;;;;2.72;1.90;;;18.20;42.40;;;;;;5072826;28;20020;-78
2022/09/23 10:21:08;;;;;;;4.00;1.90;;;18.30;43.70;;;;;;5073397;28;20422;-84
2022/09/23 10:23:40;;;;;;;6.13;2.00;;;18.60;43.40;;;;;;5073517;28;20074;-79
2022/09/23 10:26:07;;;;;;;5.55;2.90;;;18.80;41.20;;;;;;5073366;28;20021;-77
2022/09/23 10:28:54;;;;;;;5.93;2.70;;;18.80;41.30;;;;;;5072986;28;20050;-79
2022/09/23 10:31:28;;;;;;;4.82;2.38;;;18.80;40.50;;;;;;5073056;28;20044;-79
2022/09/23 10:33:59;;;;;;;3.85;2.33;;;18.80;41.60;;;;;;5055208;28;20388;-78
2022/09/23 10:36:30;;;;;;;4.70;2.60;;;19.00;42.50;;;;;;5073406;28;20100;-79
2022/09/23 10:48:21;;;;;;;4.68;3.15;;;19.00;43.90;;;;;;5072722;28;20039;-78
2022/09/23 10:50:49;;;;;;;7.22;2.92;;;19.50;43.10;;;;;;5072265;28;20021;-78
2022/09/23 10:53:27;;;;;;;4.85;2.30;;;19.70;42.90;;;;;;5072428;28;20028;-77
2022/09/23 10:56:10;;;;;;;6.25;3.03;;;19.60;43.20;;;;;;5071936;28;20021;-78
2022/09/23 10:58:54;;;;;;;9.57;2.95;;;19.90;41.10;;;;;;5071976;28;20449;-77
2022/09/23 11:02:01;;;;;;;6.88;2.70;;;19.90;40.40;;;;;;5072159;28;20074;-78
2022/09/23 11:05:05;;;;;;;7.03;2.97;;;20.00;41.60;;;;;;5071906;28;20071;-78
2022/09/23 11:07:40;;;;;;;5.40;2.28;;;20.50;39.90;;;;;;5050263;28;20037;-79
2022/09/23 11:10:28;;;;;;;5.70;3.30;;;20.70;37.80;;;;;;5072450;28;20492;-78
2022/09/23 11:13:06;;;;;;;6.28;2.80;;;20.80;36.90;;;;;;5072829;28;20085;-80
2022/09/23 11:16:00;;;;;;;4.80;2.35;;;20.90;36.90;;;;;;5054872;28;20028;-79
2022/09/23 11:18:31;;;;;;;7.43;2.80;;;21.20;37.20;;;;;;5072815;28;20016;-77
2022/09/23 11:21:25;;;;;;;4.05;2.00;;;21.60;37.50;;;;;;5072277;28;20446;-77
2022/09/23 11:24:02;;;;;;;4.57;2.25;;;21.70;37.80;;;;;;5072644;28;20552;-79
2022/09/23 11:26:54;;;;;;;4.90;2.35;;;21.30;38.00;;;;;;5072546;28;20032;-75
2022/09/23 11:29:42;;;;;;;3.42;2.42;;;21.00;38.20;;;;;;5040663;28;20420;-74
2022/09/23 11:32:22;;;;;;;5.53;2.42;;;21.20;39.20;;;;;;5073239;28;20021;-75
2022/09/23 11:34:54;;;;;;;8.70;2.63;;;21.60;38.40;;;;;;5072340;28;20388;-76
2022/09/23 11:37:26;;;;;;;5.72;2.85;;;21.90;37.90;;;;;;5073238;28;20056;-74
2022/09/23 11:40:22;;;;;;;4.78;2.20;;;22.00;36.70;;;;;;5072650;28;20027;-74
2022/09/23 11:43:00;;;;;;;5.72;2.42;;;22.50;36.90;;;;;;5053761;28;20115;-76
2022/09/23 11:45:40;;;;;;;4.95;2.30;;;22.80;35.30;;;;;;5072046;28;20049;-77
2022/09/23 11:48:19;;;;;;;4.85;2.30;;;22.90;36.20;;;;;;5069217;28;20104;-76
2022/09/23 11:50:53;;;;;;;4.15;2.58;;;23.30;35.30;;;;;;5072425;28;20039;-75
2022/09/23 11:53:43;;;;;;;3.95;2.30;;;23.70;34.50;;;;;;5071766;28;20104;-76
2022/09/23 11:56:27;;;;;;;5.65;2.55;;;23.70;33.40;;;;;;5072364;28;20029;-76
2022/09/23 11:59:28;;;;;;;4.40;2.33;;;23.50;32.90;;;;;;5072533;28;20494;-75
2022/09/23 12:02:00;;;;;;;8.05;2.38;;;22.90;34.00;;;;;;5072347;28;20028;-75
2022/09/23 12:04:34;;;;;;;4.63;3.08;;;23.20;34.30;;;;;;5072119;28;20395;-76
2022/09/23 12:07:25;;;;;;;2.95;2.53;;;23.20;33.80;;;;;;5072005;28;20123;-75
2022/09/23 12:10:02;;;;;;;3.80;2.60;;;23.00;35.10;;;;;;5074906;28;20500;-75
2022/09/23 12:12:30;;;;;;;5.47;3.33;;;23.10;35.20;;;;;;5064895;28;20104;-75
2022/09/23 12:15:22;;;;;;;6.10;2.50;;;23.20;35.30;;;;;;5037969;28;20432;-76
2022/09/23 12:18:02;;;;;;;4.22;2.70;;;23.70;34.50;;;;;;5018005;28;20036;-78
2022/09/23 12:20:46;;;;;;;5.72;2.78;;;24.00;34.60;;;;;;5056759;28;20075;-75
2022/09/23 12:23:42;;;;;;;3.95;2.60;;;24.30;33.10;;;;;;5056688;28;20043;-75
2022/09/23 12:26:13;;;;;;;4.60;2.50;;;24.30;32.30;;;;;;5061401;28;20029;-78
2022/09/23 12:28:44;;;;;;;10.80;2.65;;;24.40;31.90;;;;;;5061305;28;20045;-76
2022/09/23 12:31:29;;;;;;;3.88;2.20;;;24.50;32.50;;;;;;5038642;28;20424;-75
2022/09/23 12:33:56;;;;;;;6.20;2.50;;;24.70;32.60;;;;;;5056046;28;20528;-75
2022/09/23 12:36:34;;;;;;;7.03;3.00;;;25.00;32.00;;;;;;5038114;28;20041;-75
2022/09/23 12:39:02;;;;;;;8.27;2.50;;;24.80;31.90;;;;;;5054762;28;20040;-75
2022/09/23 12:41:36;;;;;;;3.35;2.08;;;24.90;31.90;;;;;;5054601;28;20080;-75
2022/09/23 12:44:13;;;;;;;3.92;1.83;;;25.20;31.30;;;;;;5058600;28;20048;-74
2022/09/23 12:47:07;;;;;;;5.95;2.80;;;25.60;31.10;;;;;;5074917;28;20477;-74
2022/09/23 12:49:36;;;;;;;3.55;2.03;;;25.70;30.00;;;;;;5073441;28;20036;-75
2022/09/23 12:52:11;;;;;;;4.78;2.10;;;25.80;29.60;;;;;;5074180;28;20025;-76
2022/09/23 12:54:38;;;;;;;4.28;1.85;;;25.90;30.50;;;;;;5074257;28;20020;-76
2022/09/23 12:57:28;;;;;;;6.13;2.38;;;25.90;29.60;;;;;;5074993;28;20082;-77
2022/09/23 13:00:13;;;;;;;5.40;2.30;;;25.90;28.80;;;;;;5053975;28;20087;-75
2022/09/23 13:08:29;;;;;;;3.80;1.50;;;25.30;29.20;;;;;;5068817;28;20031;-77
2022/09/23 13:11:21;;;;;;;7.22;1.85;;;25.30;28.80;;;;;;5072648;28;20020;-75
2022/09/23 13:13:48;;;;;;;3.67;1.95;;;25.50;29.10;;;;;;5070959;28;20043;-77
2022/09/23 13:16:36;;;;;;;4.78;1.98;;;25.70;28.80;;;;;;5073592;28;20025;-76
2022/09/23 13:19:26;;;;;;;3.25;1.77;;;25.70;29.40;;;;;;5072517;28;20029;-76
2022/09/23 13:22:07;;;;;;;3.58;1.55;;;25.70;27.70;;;;;;5023069;28;20484;-76
2022/09/23 13:24:46;;;;;;;2.78;1.83;;;25.70;27.90;;;;;;5074278;28;20039;-78
2022/09/23 13:27:22;;;;;;;3.28;1.90;;;25.40;28.60;;;;;;5074284;28;20070;-79
2022/09/23 13:30:03;;;;;;;3.63;1.98;;;25.20;29.40;;;;;;5074591;28;20048;-76
2022/09/23 13:32:33;;;;;;;4.30;1.70;;;25.00;29.60;;;;;;5074186;28;20032;-74
2022/09/23 13:35:12;;;;;;;2.45;1.63;;;24.90;28.80;;;;;;5074287;28;20385;-77
2022/09/23 13:37:47;;;;;;;6.05;1.70;;;24.80;29.10;;;;;;5055809;28;20036;-77